sensor_id;sensor_type;location;lat;lon;timestamp;P1;durP1;ratioP1;P2;durP2;ratioP2
29824;SDS011;16713;52.916;12.834;2022-11-12T00:00:55;7.85;;;5.10;;
29824;SDS011;16713;52.916;12.834;2022-11-12T00:03:21;9.35;;;5.32;;
29824;SDS011;16713;52.916;12.834;2022-11-12T00:05:47;7.13;;;5.30;;
29824;SDS011;16713;52.916;12.834;2022-11-12T00:08:16;7.93;;;5.18;;
29824;SDS011;16713;52.916;12.834;2022-11-12T00:10:43;7.88;;;5.13;;
29824;SDS011;16713;52.916;12.834;2022-11-12T00:13:10;4.97;;;3.80;;
29824;SDS011;16713;52.916;12.834;2022-11-12T00:15:36;6.35;;;4.45;;
29824;SDS011;16713;52.916;12.834;2022-11-12T00:18:03;6.47;;;4.15;;
29824;SDS011;16713;52.916;12.834;2022-11-12T00:20:29;7.43;;;5.03;;
29824;SDS011;16713;52.916;12.834;2022-11-12T00:22:56;6.72;;;4.35;;
29824;SDS011;16713;52.916;12.834;2022-11-12T00:25:22;8.10;;;4.15;;
29824;SDS011;16713;52.916;12.834;2022-11-12T00:27:49;6.75;;;4.35;;
29824;SDS011;16713;52.916;12.834;2022-11-12T00:30:15;8.07;;;5.10;;
29824;SDS011;16713;52.916;12.834;2022-11-12T00:32:42;6.88;;;4.50;;
29824;SDS011;16713;52.916;12.834;2022-11-12T00:35:09;5.50;;;4.35;;
29824;SDS011;16713;52.916;12.834;2022-11-12T00:37:39;9.70;;;4.85;;
29824;SDS011;16713;52.916;12.834;2022-11-12T00:40:06;6.63;;;4.45;;
29824;SDS011;16713;52.916;12.834;2022-11-12T00:42:33;18.92;;;9.80;;
29824;SDS011;16713;52.916;12.834;2022-11-12T00:44:59;7.30;;;5.15;;
29824;SDS011;16713;52.916;12.834;2022-11-12T00:47:26;7.50;;;4.60;;
29824;SDS011;16713;52.916;12.834;2022-11-12T00:49:52;6.10;;;4.50;;
29824;SDS011;16713;52.916;12.834;2022-11-12T00:52:19;8.82;;;4.57;;
29824;SDS011;16713;52.916;12.834;2022-11-12T00:54:45;10.48;;;4.30;;
29824;SDS011;16713;52.916;12.834;2022-11-12T00:57:12;6.47;;;4.70;;
29824;SDS011;16713;52.916;12.834;2022-11-12T00:59:38;7.18;;;4.40;;
29824;SDS011;16713;52.916;12.834;2022-11-12T01:02:05;6.28;;;4.68;;
29824;SDS011;16713;52.916;12.834;2022-11-12T01:04:31;8.90;;;4.65;;
29824;SDS011;16713;52.916;12.834;2022-11-12T01:06:58;10.05;;;5.10;;
29824;SDS011;16713;52.916;12.834;2022-11-12T01:09:24;9.80;;;5.25;;
29824;SDS011;16713;52.916;12.834;2022-11-12T01:11:51;7.07;;;4.55;;
29824;SDS011;16713;52.916;12.834;2022-11-12T01:14:17;7.53;;;4.80;;
29824;SDS011;16713;52.916;12.834;2022-11-12T01:16:44;9.98;;;5.38;;
29824;SDS011;16713;52.916;12.834;2022-11-12T01:19:10;6.82;;;4.68;;
29824;SDS011;16713;52.916;12.834;2022-11-12T01:21:39;7.72;;;4.53;;
29824;SDS011;16713;52.916;12.834;2022-11-12T01:24:07;9.20;;;4.88;;
29824;SDS011;16713;52.916;12.834;2022-11-12T01:26:35;6.22;;;4.60;;
29824;SDS011;16713;52.916;12.834;2022-11-12T01:29:02;7.40;;;5.03;;
29824;SDS011;16713;52.916;12.834;2022-11-12T01:31:30;6.90;;;4.10;;
29824;SDS011;16713;52.916;12.834;2022-11-12T01:34:01;10.18;;;5.05;;
29824;SDS011;16713;52.916;12.834;2022-11-12T01:36:31;7.43;;;4.57;;
29824;SDS011;16713;52.916;12.834;2022-11-12T01:38:59;6.88;;;4.72;;
29824;SDS011;16713;52.916;12.834;2022-11-12T01:41:27;7.13;;;4.60;;
29824;SDS011;16713;52.916;12.834;2022-11-12T01:47:13;9.32;;;5.57;;
29824;SDS011;16713;52.916;12.834;2022-11-12T01:52:54;9.30;;;5.13;;
29824;SDS011;16713;52.916;12.834;2022-11-12T01:55:26;12.05;;;5.85;;
29824;SDS011;16713;52.916;12.834;2022-11-12T02:00:31;11.75;;;5.95;;
29824;SDS011;16713;52.916;12.834;2022-11-12T02:02:58;9.05;;;5.20;;
29824;SDS011;16713;52.916;12.834;2022-11-12T02:05:27;9.15;;;5.57;;
29824;SDS011;16713;52.916;12.834;2022-11-12T02:07:56;7.55;;;4.93;;
29824;SDS011;16713;52.916;12.834;2022-11-12T02:10:25;10.35;;;5.95;;
29824;SDS011;16713;52.916;12.834;2022-11-12T02:12:52;9.73;;;6.22;;
29824;SDS011;16713;52.916;12.834;2022-11-12T02:15:38;11.02;;;6.25;;
29824;SDS011;16713;52.916;12.834;2022-11-12T02:18:06;8.98;;;5.43;;
29824;SDS011;16713;52.916;12.834;2022-11-12T02:20:33;8.75;;;5.53;;
29824;SDS011;16713;52.916;12.834;2022-11-12T02:23:02;8.38;;;5.60;;
29824;SDS011;16713;52.916;12.834;2022-11-12T02:25:29;9.52;;;5.78;;
29824;SDS011;16713;52.916;12.834;2022-11-12T02:27:55;9.65;;;5.40;;
29824;SDS011;16713;52.916;12.834;2022-11-12T02:30:57;8.73;;;4.88;;
29824;SDS011;16713;52.916;12.834;2022-11-12T02:33:16;9.00;;;5.35;;
29824;SDS011;16713;52.916;12.834;2022-11-12T02:35:43;4.90;;;4.05;;
29824;SDS011;16713;52.916;12.834;2022-11-12T02:38:09;8.30;;;4.30;;
29824;SDS011;16713;52.916;12.834;2022-11-12T02:40:36;4.50;;;3.90;;
29824;SDS011;16713;52.916;12.834;2022-11-12T02:43:02;7.15;;;4.65;;
29824;SDS011;16713;52.916;12.834;2022-11-12T02:45:29;4.47;;;3.58;;
29824;SDS011;16713;52.916;12.834;2022-11-12T02:47:57;5.10;;;3.58;;
29824;SDS011;16713;52.916;12.834;2022-11-12T02:50:23;4.93;;;3.83;;
29824;SDS011;16713;52.916;12.834;2022-11-12T02:52:50;4.82;;;3.80;;
29824;SDS011;16713;52.916;12.834;2022-11-12T02:55:16;7.03;;;4.00;;
29824;SDS011;16713;52.916;12.834;2022-11-12T02:57:43;6.15;;;4.10;;
29824;SDS011;16713;52.916;12.834;2022-11-12T03:00:10;5.53;;;3.92;;
29824;SDS011;16713;52.916;12.834;2022-11-12T03:02:38;7.70;;;4.50;;
29824;SDS011;16713;52.916;12.834;2022-11-12T03:05:10;8.30;;;5.30;;
29824;SDS011;16713;52.916;12.834;2022-11-12T03:07:37;6.68;;;4.45;;
29824;SDS011;16713;52.916;12.834;2022-11-12T03:10:04;6.57;;;4.35;;
29824;SDS011;16713;52.916;12.834;2022-11-12T03:12:31;7.68;;;4.78;;
29824;SDS011;16713;52.916;12.834;2022-11-12T03:14:58;9.35;;;4.60;;
29824;SDS011;16713;52.916;12.834;2022-11-12T03:17:24;5.47;;;4.40;;
29824;SDS011;16713;52.916;12.834;2022-11-12T03:19:51;10.18;;;4.97;;
29824;SDS011;16713;52.916;12.834;2022-11-12T03:22:17;7.78;;;4.63;;
29824;SDS011;16713;52.916;12.834;2022-11-12T03:24:44;6.03;;;4.47;;
29824;SDS011;16713;52.916;12.834;2022-11-12T03:27:10;8.15;;;5.22;;
29824;SDS011;16713;52.916;12.834;2022-11-12T03:29:36;8.10;;;4.57;;
29824;SDS011;16713;52.916;12.834;2022-11-12T03:32:03;6.20;;;3.97;;
29824;SDS011;16713;52.916;12.834;2022-11-12T03:34:29;7.05;;;4.50;;
29824;SDS011;16713;52.916;12.834;2022-11-12T03:36:56;5.78;;;4.70;;
29824;SDS011;16713;52.916;12.834;2022-11-12T03:39:22;6.78;;;5.15;;
29824;SDS011;16713;52.916;12.834;2022-11-12T03:41:49;6.63;;;4.45;;
29824;SDS011;16713;52.916;12.834;2022-11-12T03:44:15;8.40;;;4.80;;
29824;SDS011;16713;52.916;12.834;2022-11-12T03:46:41;7.25;;;4.68;;
29824;SDS011;16713;52.916;12.834;2022-11-12T03:49:09;6.97;;;5.13;;
29824;SDS011;16713;52.916;12.834;2022-11-12T03:51:36;7.80;;;4.47;;
29824;SDS011;16713;52.916;12.834;2022-11-12T03:54:02;7.00;;;4.82;;
29824;SDS011;16713;52.916;12.834;2022-11-12T03:56:29;6.10;;;4.72;;
29824;SDS011;16713;52.916;12.834;2022-11-12T03:58:55;6.80;;;4.68;;
29824;SDS011;16713;52.916;12.834;2022-11-12T04:01:22;5.93;;;4.13;;
29824;SDS011;16713;52.916;12.834;2022-11-12T04:03:48;5.35;;;3.67;;
29824;SDS011;16713;52.916;12.834;2022-11-12T04:06:15;5.57;;;3.58;;
29824;SDS011;16713;52.916;12.834;2022-11-12T04:09:00;5.60;;;3.33;;
29824;SDS011;16713;52.916;12.834;2022-11-12T04:11:26;5.10;;;3.20;;
29824;SDS011;16713;52.916;12.834;2022-11-12T04:13:53;5.00;;;3.70;;
29824;SDS011;16713;52.916;12.834;2022-11-12T04:16:20;6.32;;;4.03;;
29824;SDS011;16713;52.916;12.834;2022-11-12T04:19:07;8.40;;;3.67;;
29824;SDS011;16713;52.916;12.834;2022-11-12T04:22:06;4.88;;;3.78;;
29824;SDS011;16713;52.916;12.834;2022-11-12T04:24:41;5.93;;;3.80;;
29824;SDS011;16713;52.916;12.834;2022-11-12T04:27:30;5.78;;;3.97;;
29824;SDS011;16713;52.916;12.834;2022-11-12T04:29:58;8.35;;;4.47;;
29824;SDS011;16713;52.916;12.834;2022-11-12T04:32:48;4.47;;;3.70;;
29824;SDS011;16713;52.916;12.834;2022-11-12T04:35:17;5.80;;;4.25;;
29824;SDS011;16713;52.916;12.834;2022-11-12T04:37:44;7.13;;;4.38;;
29824;SDS011;16713;52.916;12.834;2022-11-12T04:40:15;5.60;;;4.35;;
29824;SDS011;16713;52.916;12.834;2022-11-12T04:43:00;9.02;;;4.90;;
29824;SDS011;16713;52.916;12.834;2022-11-12T04:45:47;9.63;;;5.38;;
29824;SDS011;16713;52.916;12.834;2022-11-12T04:48:16;8.57;;;4.80;;
29824;SDS011;16713;52.916;12.834;2022-11-12T04:50:44;8.20;;;5.10;;
29824;SDS011;16713;52.916;12.834;2022-11-12T04:53:56;7.70;;;4.68;;
29824;SDS011;16713;52.916;12.834;2022-11-12T04:56:22;8.25;;;5.57;;
29824;SDS011;16713;52.916;12.834;2022-11-12T04:58:49;9.57;;;5.68;;
29824;SDS011;16713;52.916;12.834;2022-11-12T05:01:15;9.10;;;5.63;;
29824;SDS011;16713;52.916;12.834;2022-11-12T05:03:42;9.25;;;5.75;;
29824;SDS011;16713;52.916;12.834;2022-11-12T05:06:08;14.90;;;6.90;;
29824;SDS011;16713;52.916;12.834;2022-11-12T05:08:53;12.88;;;5.50;;
29824;SDS011;16713;52.916;12.834;2022-11-12T05:11:19;8.60;;;5.70;;
29824;SDS011;16713;52.916;12.834;2022-11-12T05:13:46;11.77;;;6.60;;
29824;SDS011;16713;52.916;12.834;2022-11-12T05:16:12;11.63;;;6.13;;
29824;SDS011;16713;52.916;12.834;2022-11-12T05:18:39;9.25;;;6.10;;
29824;SDS011;16713;52.916;12.834;2022-11-12T05:21:05;11.65;;;6.32;;
29824;SDS011;16713;52.916;12.834;2022-11-12T05:23:52;12.85;;;6.78;;
29824;SDS011;16713;52.916;12.834;2022-11-12T05:26:18;12.93;;;6.85;;
29824;SDS011;16713;52.916;12.834;2022-11-12T05:28:45;10.00;;;6.10;;
29824;SDS011;16713;52.916;12.834;2022-11-12T05:31:11;8.93;;;5.45;;
29824;SDS011;16713;52.916;12.834;2022-11-12T05:33:37;8.73;;;5.75;;
29824;SDS011;16713;52.916;12.834;2022-11-12T05:36:04;9.93;;;6.95;;
29824;SDS011;16713;52.916;12.834;2022-11-12T05:38:30;12.68;;;6.47;;
29824;SDS011;16713;52.916;12.834;2022-11-12T05:40:57;13.35;;;6.75;;
29824;SDS011;16713;52.916;12.834;2022-11-12T05:43:23;10.65;;;6.90;;
29824;SDS011;16713;52.916;12.834;2022-11-12T05:45:50;10.63;;;6.32;;
29824;SDS011;16713;52.916;12.834;2022-11-12T05:48:16;10.85;;;6.68;;
29824;SDS011;16713;52.916;12.834;2022-11-12T05:50:50;9.48;;;6.63;;
29824;SDS011;16713;52.916;12.834;2022-11-12T05:53:37;10.23;;;6.95;;
29824;SDS011;16713;52.916;12.834;2022-11-12T05:56:03;14.50;;;6.85;;
29824;SDS011;16713;52.916;12.834;2022-11-12T05:58:31;15.00;;;7.85;;
29824;SDS011;16713;52.916;12.834;2022-11-12T06:00:58;12.65;;;7.28;;
29824;SDS011;16713;52.916;12.834;2022-11-12T06:03:25;12.77;;;7.07;;
29824;SDS011;16713;52.916;12.834;2022-11-12T06:05:51;9.20;;;6.32;;
29824;SDS011;16713;52.916;12.834;2022-11-12T06:08:18;13.82;;;6.90;;
29824;SDS011;16713;52.916;12.834;2022-11-12T06:10:48;9.90;;;6.30;;
29824;SDS011;16713;52.916;12.834;2022-11-12T06:13:15;12.25;;;6.70;;
29824;SDS011;16713;52.916;12.834;2022-11-12T06:15:41;8.57;;;6.32;;
29824;SDS011;16713;52.916;12.834;2022-11-12T06:18:08;9.48;;;6.60;;
29824;SDS011;16713;52.916;12.834;2022-11-12T06:20:35;9.35;;;7.25;;
29824;SDS011;16713;52.916;12.834;2022-11-12T06:23:01;12.60;;;7.20;;
29824;SDS011;16713;52.916;12.834;2022-11-12T06:25:28;13.98;;;7.20;;
29824;SDS011;16713;52.916;12.834;2022-11-12T06:27:55;11.18;;;6.78;;
29824;SDS011;16713;52.916;12.834;2022-11-12T06:30:21;9.55;;;6.63;;
29824;SDS011;16713;52.916;12.834;2022-11-12T06:32:51;10.73;;;6.93;;
29824;SDS011;16713;52.916;12.834;2022-11-12T06:35:18;8.85;;;6.13;;
29824;SDS011;16713;52.916;12.834;2022-11-12T06:37:45;9.98;;;6.30;;
29824;SDS011;16713;52.916;12.834;2022-11-12T06:40:12;10.30;;;6.55;;
29824;SDS011;16713;52.916;12.834;2022-11-12T06:42:39;9.73;;;6.70;;
29824;SDS011;16713;52.916;12.834;2022-11-12T06:45:06;14.20;;;8.93;;
29824;SDS011;16713;52.916;12.834;2022-11-12T06:47:32;15.95;;;8.40;;
29824;SDS011;16713;52.916;12.834;2022-11-12T06:49:59;12.52;;;7.53;;
29824;SDS011;16713;52.916;12.834;2022-11-12T06:52:25;11.75;;;7.13;;
29824;SDS011;16713;52.916;12.834;2022-11-12T06:54:52;12.00;;;7.60;;
29824;SDS011;16713;52.916;12.834;2022-11-12T06:57:18;10.20;;;6.57;;
29824;SDS011;16713;52.916;12.834;2022-11-12T06:59:45;8.50;;;5.93;;
29824;SDS011;16713;52.916;12.834;2022-11-12T07:02:11;9.68;;;6.15;;
29824;SDS011;16713;52.916;12.834;2022-11-12T07:04:38;10.15;;;7.07;;
29824;SDS011;16713;52.916;12.834;2022-11-12T07:07:05;10.27;;;6.20;;
29824;SDS011;16713;52.916;12.834;2022-11-12T07:09:36;10.50;;;6.28;;
29824;SDS011;16713;52.916;12.834;2022-11-12T07:12:02;10.00;;;6.63;;
29824;SDS011;16713;52.916;12.834;2022-11-12T07:14:29;10.02;;;7.13;;
29824;SDS011;16713;52.916;12.834;2022-11-12T07:16:55;12.18;;;7.00;;
29824;SDS011;16713;52.916;12.834;2022-11-12T07:19:21;11.23;;;7.53;;
29824;SDS011;16713;52.916;12.834;2022-11-12T07:21:48;14.23;;;7.90;;
29824;SDS011;16713;52.916;12.834;2022-11-12T07:24:14;9.45;;;7.22;;
29824;SDS011;16713;52.916;12.834;2022-11-12T07:26:41;12.90;;;7.15;;
29824;SDS011;16713;52.916;12.834;2022-11-12T07:29:12;8.90;;;6.63;;
29824;SDS011;16713;52.916;12.834;2022-11-12T07:31:59;14.70;;;7.63;;
29824;SDS011;16713;52.916;12.834;2022-11-12T07:34:25;10.50;;;7.35;;
29824;SDS011;16713;52.916;12.834;2022-11-12T07:36:52;11.25;;;7.30;;
29824;SDS011;16713;52.916;12.834;2022-11-12T07:39:18;13.25;;;6.85;;
29824;SDS011;16713;52.916;12.834;2022-11-12T07:41:45;9.20;;;6.93;;
29824;SDS011;16713;52.916;12.834;2022-11-12T07:44:11;10.45;;;7.00;;
29824;SDS011;16713;52.916;12.834;2022-11-12T07:46:37;16.52;;;8.07;;
29824;SDS011;16713;52.916;12.834;2022-11-12T07:49:04;12.63;;;7.63;;
29824;SDS011;16713;52.916;12.834;2022-11-12T07:51:30;15.10;;;7.88;;
29824;SDS011;16713;52.916;12.834;2022-11-12T07:53:57;10.68;;;7.15;;
29824;SDS011;16713;52.916;12.834;2022-11-12T07:56:25;12.45;;;6.45;;
29824;SDS011;16713;52.916;12.834;2022-11-12T07:58:52;12.02;;;7.28;;
29824;SDS011;16713;52.916;12.834;2022-11-12T08:04:00;8.82;;;5.90;;
29824;SDS011;16713;52.916;12.834;2022-11-12T08:06:28;10.50;;;6.80;;
29824;SDS011;16713;52.916;12.834;2022-11-12T08:08:56;10.10;;;6.22;;
29824;SDS011;16713;52.916;12.834;2022-11-12T08:11:24;10.95;;;6.82;;
29824;SDS011;16713;52.916;12.834;2022-11-12T08:13:51;11.85;;;6.80;;
29824;SDS011;16713;52.916;12.834;2022-11-12T08:16:17;8.43;;;5.97;;
29824;SDS011;16713;52.916;12.834;2022-11-12T08:18:44;12.77;;;7.43;;
29824;SDS011;16713;52.916;12.834;2022-11-12T08:21:12;8.68;;;6.60;;
29824;SDS011;16713;52.916;12.834;2022-11-12T08:23:40;10.95;;;6.18;;
29824;SDS011;16713;52.916;12.834;2022-11-12T08:26:07;10.82;;;6.50;;
29824;SDS011;16713;52.916;12.834;2022-11-12T08:28:37;9.68;;;6.63;;
29824;SDS011;16713;52.916;12.834;2022-11-12T08:31:05;11.48;;;6.10;;
29824;SDS011;16713;52.916;12.834;2022-11-12T08:33:36;8.55;;;6.15;;
29824;SDS011;16713;52.916;12.834;2022-11-12T08:36:04;9.70;;;6.35;;
29824;SDS011;16713;52.916;12.834;2022-11-12T08:38:32;10.80;;;6.57;;
29824;SDS011;16713;52.916;12.834;2022-11-12T08:41:00;10.38;;;6.25;;
29824;SDS011;16713;52.916;12.834;2022-11-12T08:43:27;11.18;;;7.13;;
29824;SDS011;16713;52.916;12.834;2022-11-12T08:45:56;11.65;;;7.47;;
29824;SDS011;16713;52.916;12.834;2022-11-12T08:48:23;11.38;;;7.13;;
29824;SDS011;16713;52.916;12.834;2022-11-12T08:50:51;10.93;;;7.18;;
29824;SDS011;16713;52.916;12.834;2022-11-12T08:53:19;13.75;;;7.45;;
29824;SDS011;16713;52.916;12.834;2022-11-12T08:55:47;11.63;;;7.50;;
29824;SDS011;16713;52.916;12.834;2022-11-12T08:58:14;12.73;;;7.82;;
29824;SDS011;16713;52.916;12.834;2022-11-12T09:00:41;16.20;;;8.25;;
29824;SDS011;16713;52.916;12.834;2022-11-12T09:03:13;12.73;;;7.90;;
29824;SDS011;16713;52.916;12.834;2022-11-12T09:05:41;16.08;;;7.97;;
29824;SDS011;16713;52.916;12.834;2022-11-12T09:08:09;13.93;;;7.97;;
29824;SDS011;16713;52.916;12.834;2022-11-12T09:10:37;15.00;;;8.23;;
29824;SDS011;16713;52.916;12.834;2022-11-12T09:13:04;18.30;;;9.05;;
29824;SDS011;16713;52.916;12.834;2022-11-12T09:15:31;14.77;;;9.00;;
29824;SDS011;16713;52.916;12.834;2022-11-12T09:18:04;14.43;;;9.52;;
29824;SDS011;16713;52.916;12.834;2022-11-12T09:20:33;15.98;;;8.60;;
29824;SDS011;16713;52.916;12.834;2022-11-12T09:23:00;19.00;;;10.15;;
29824;SDS011;16713;52.916;12.834;2022-11-12T09:25:29;16.35;;;9.15;;
29824;SDS011;16713;52.916;12.834;2022-11-12T09:27:55;19.73;;;9.95;;
29824;SDS011;16713;52.916;12.834;2022-11-12T09:30:22;20.75;;;10.98;;
29824;SDS011;16713;52.916;12.834;2022-11-12T09:32:49;21.25;;;10.55;;
29824;SDS011;16713;52.916;12.834;2022-11-12T09:35:15;18.58;;;10.80;;
29824;SDS011;16713;52.916;12.834;2022-11-12T09:37:42;23.83;;;10.95;;
29824;SDS011;16713;52.916;12.834;2022-11-12T09:40:09;19.33;;;12.55;;
29824;SDS011;16713;52.916;12.834;2022-11-12T09:42:44;18.08;;;10.23;;
29824;SDS011;16713;52.916;12.834;2022-11-12T09:45:17;21.23;;;11.98;;
29824;SDS011;16713;52.916;12.834;2022-11-12T09:47:58;19.88;;;11.80;;
29824;SDS011;16713;52.916;12.834;2022-11-12T09:53:34;19.95;;;11.30;;
29824;SDS011;16713;52.916;12.834;2022-11-12T09:56:23;20.73;;;11.30;;
29824;SDS011;16713;52.916;12.834;2022-11-12T09:58:51;22.48;;;12.10;;
29824;SDS011;16713;52.916;12.834;2022-11-12T10:01:21;20.73;;;12.18;;
29824;SDS011;16713;52.916;12.834;2022-11-12T10:04:04;21.35;;;11.38;;
29824;SDS011;16713;52.916;12.834;2022-11-12T10:09:42;21.00;;;12.38;;
29824;SDS011;16713;52.916;12.834;2022-11-12T10:24:28;22.50;;;13.02;;
29824;SDS011;16713;52.916;12.834;2022-11-12T10:26:59;24.50;;;13.43;;
29824;SDS011;16713;52.916;12.834;2022-11-12T10:29:32;23.48;;;12.57;;
29824;SDS011;16713;52.916;12.834;2022-11-12T10:32:07;31.10;;;14.00;;
29824;SDS011;16713;52.916;12.834;2022-11-12T10:34:40;31.50;;;15.45;;
29824;SDS011;16713;52.916;12.834;2022-11-12T10:37:13;28.98;;;14.43;;
29824;SDS011;16713;52.916;12.834;2022-11-12T10:39:45;28.67;;;15.63;;
29824;SDS011;16713;52.916;12.834;2022-11-12T10:42:14;34.95;;;18.02;;
29824;SDS011;16713;52.916;12.834;2022-11-12T10:44:41;39.40;;;19.33;;
29824;SDS011;16713;52.916;12.834;2022-11-12T10:49:41;32.58;;;17.17;;
29824;SDS011;16713;52.916;12.834;2022-11-12T10:52:21;32.20;;;17.40;;
29824;SDS011;16713;52.916;12.834;2022-11-12T10:54:49;23.38;;;15.85;;
29824;SDS011;16713;52.916;12.834;2022-11-12T10:57:30;35.33;;;17.50;;
29824;SDS011;16713;52.916;12.834;2022-11-12T11:00:18;32.90;;;16.52;;
29824;SDS011;16713;52.916;12.834;2022-11-12T11:02:51;41.47;;;21.05;;
29824;SDS011;16713;52.916;12.834;2022-11-12T11:06:06;30.90;;;18.17;;
29824;SDS011;16713;52.916;12.834;2022-11-12T11:08:15;29.92;;;15.48;;
29824;SDS011;16713;52.916;12.834;2022-11-12T11:13:54;27.35;;;15.30;;
29824;SDS011;16713;52.916;12.834;2022-11-12T11:16:24;29.95;;;15.35;;
29824;SDS011;16713;52.916;12.834;2022-11-12T11:18:55;25.17;;;14.65;;
29824;SDS011;16713;52.916;12.834;2022-11-12T11:35:38;33.05;;;18.33;;
29824;SDS011;16713;52.916;12.834;2022-11-12T11:44:05;36.55;;;17.85;;
29824;SDS011;16713;52.916;12.834;2022-11-12T12:00:28;30.75;;;17.17;;
29824;SDS011;16713;52.916;12.834;2022-11-12T12:03:10;29.50;;;16.38;;
29824;SDS011;16713;52.916;12.834;2022-11-12T12:05:49;30.30;;;15.03;;
29824;SDS011;16713;52.916;12.834;2022-11-12T12:11:27;31.30;;;17.52;;
29824;SDS011;16713;52.916;12.834;2022-11-12T12:22:40;33.10;;;18.55;;
29824;SDS011;16713;52.916;12.834;2022-11-12T12:25:22;32.92;;;18.42;;
29824;SDS011;16713;52.916;12.834;2022-11-12T12:28:00;32.67;;;19.03;;
29824;SDS011;16713;52.916;12.834;2022-11-12T12:30:35;29.38;;;17.90;;
29824;SDS011;16713;52.916;12.834;2022-11-12T12:36:10;29.92;;;16.48;;
29824;SDS011;16713;52.916;12.834;2022-11-12T12:38:41;31.40;;;17.50;;
29824;SDS011;16713;52.916;12.834;2022-11-12T12:43:48;33.85;;;16.88;;
29824;SDS011;16713;52.916;12.834;2022-11-12T12:46:19;35.35;;;17.35;;
29824;SDS011;16713;52.916;12.834;2022-11-12T12:48:49;28.33;;;15.90;;
29824;SDS011;16713;52.916;12.834;2022-11-12T12:51:19;30.75;;;17.23;;
29824;SDS011;16713;52.916;12.834;2022-11-12T12:53:46;31.27;;;17.83;;
29824;SDS011;16713;52.916;12.834;2022-11-12T12:58:43;32.35;;;17.27;;
29824;SDS011;16713;52.916;12.834;2022-11-12T13:03:54;31.63;;;17.15;;
29824;SDS011;16713;52.916;12.834;2022-11-12T13:06:25;34.78;;;17.48;;
29824;SDS011;16713;52.916;12.834;2022-11-12T13:09:18;34.15;;;18.92;;
29824;SDS011;16713;52.916;12.834;2022-11-12T13:11:50;31.40;;;19.20;;
29824;SDS011;16713;52.916;12.834;2022-11-12T13:19:33;34.70;;;19.15;;
29824;SDS011;16713;52.916;12.834;2022-11-12T13:42:56;55.05;;;24.02;;
29824;SDS011;16713;52.916;12.834;2022-11-12T13:51:15;51.92;;;24.70;;
29824;SDS011;16713;52.916;12.834;2022-11-12T13:53:57;43.58;;;23.00;;
29824;SDS011;16713;52.916;12.834;2022-11-12T13:56:28;44.22;;;21.33;;
29824;SDS011;16713;52.916;12.834;2022-11-12T14:01:44;48.08;;;25.63;;
29824;SDS011;16713;52.916;12.834;2022-11-12T14:04:13;42.78;;;23.73;;
29824;SDS011;16713;52.916;12.834;2022-11-12T14:06:48;36.78;;;20.83;;
29824;SDS011;16713;52.916;12.834;2022-11-12T14:25:47;33.83;;;17.05;;
29824;SDS011;16713;52.916;12.834;2022-11-12T14:28:34;31.48;;;17.58;;
29824;SDS011;16713;52.916;12.834;2022-11-12T14:31:02;31.63;;;16.92;;
29824;SDS011;16713;52.916;12.834;2022-11-12T14:33:30;30.13;;;16.58;;
29824;SDS011;16713;52.916;12.834;2022-11-12T14:36:01;32.75;;;17.55;;
29824;SDS011;16713;52.916;12.834;2022-11-12T14:38:35;32.15;;;18.25;;
29824;SDS011;16713;52.916;12.834;2022-11-12T14:41:09;37.60;;;17.77;;
29824;SDS011;16713;52.916;12.834;2022-11-12T14:43:44;35.67;;;18.13;;
29824;SDS011;16713;52.916;12.834;2022-11-12T14:46:21;31.58;;;16.75;;
29824;SDS011;16713;52.916;12.834;2022-11-12T14:48:53;31.25;;;16.05;;
29824;SDS011;16713;52.916;12.834;2022-11-12T14:51:23;27.95;;;15.35;;
29824;SDS011;16713;52.916;12.834;2022-11-12T14:54:17;29.50;;;16.08;;
29824;SDS011;16713;52.916;12.834;2022-11-12T14:56:51;31.33;;;16.88;;
29824;SDS011;16713;52.916;12.834;2022-11-12T14:59:18;28.88;;;16.58;;
29824;SDS011;16713;52.916;12.834;2022-11-12T15:05:18;29.27;;;15.80;;
29824;SDS011;16713;52.916;12.834;2022-11-12T15:07:50;29.50;;;15.85;;
29824;SDS011;16713;52.916;12.834;2022-11-12T15:10:36;35.07;;;17.33;;
29824;SDS011;16713;52.916;12.834;2022-11-12T15:13:10;22.80;;;12.95;;
29824;SDS011;16713;52.916;12.834;2022-11-12T15:15:51;31.85;;;15.50;;
29824;SDS011;16713;52.916;12.834;2022-11-12T15:18:23;27.98;;;15.30;;
29824;SDS011;16713;52.916;12.834;2022-11-12T15:23:54;26.50;;;14.25;;
29824;SDS011;16713;52.916;12.834;2022-11-12T15:26:31;31.05;;;16.30;;
29824;SDS011;16713;52.916;12.834;2022-11-12T15:29:22;27.38;;;15.55;;
29824;SDS011;16713;52.916;12.834;2022-11-12T15:32:02;27.65;;;14.45;;
29824;SDS011;16713;52.916;12.834;2022-11-12T15:39:48;27.75;;;15.07;;
29824;SDS011;16713;52.916;12.834;2022-11-12T15:42:25;29.10;;;15.85;;
29824;SDS011;16713;52.916;12.834;2022-11-12T15:45:02;27.02;;;14.90;;
29824;SDS011;16713;52.916;12.834;2022-11-12T15:47:34;28.27;;;15.48;;
29824;SDS011;16713;52.916;12.834;2022-11-12T15:50:03;29.58;;;15.95;;
29824;SDS011;16713;52.916;12.834;2022-11-12T15:52:40;31.80;;;16.92;;
29824;SDS011;16713;52.916;12.834;2022-11-12T15:55:07;30.55;;;17.70;;
29824;SDS011;16713;52.916;12.834;2022-11-12T15:57:37;33.28;;;17.60;;
29824;SDS011;16713;52.916;12.834;2022-11-12T16:00:09;29.35;;;16.40;;
29824;SDS011;16713;52.916;12.834;2022-11-12T16:02:40;29.55;;;16.23;;
29824;SDS011;16713;52.916;12.834;2022-11-12T16:05:14;31.45;;;16.52;;
29824;SDS011;16713;52.916;12.834;2022-11-12T16:07:41;26.67;;;15.63;;
29824;SDS011;16713;52.916;12.834;2022-11-12T16:10:11;33.10;;;16.13;;
29824;SDS011;16713;52.916;12.834;2022-11-12T16:12:42;29.67;;;15.70;;
29824;SDS011;16713;52.916;12.834;2022-11-12T16:15:14;32.38;;;16.85;;
29824;SDS011;16713;52.916;12.834;2022-11-12T16:17:46;34.50;;;16.67;;
29824;SDS011;16713;52.916;12.834;2022-11-12T16:20:20;30.42;;;16.02;;
29824;SDS011;16713;52.916;12.834;2022-11-12T16:22:56;30.92;;;15.13;;
29824;SDS011;16713;52.916;12.834;2022-11-12T16:25:24;25.40;;;15.63;;
29824;SDS011;16713;52.916;12.834;2022-11-12T16:27:55;35.13;;;15.90;;
29824;SDS011;16713;52.916;12.834;2022-11-12T16:30:24;29.38;;;14.82;;
29824;SDS011;16713;52.916;12.834;2022-11-12T16:32:55;32.42;;;15.85;;
29824;SDS011;16713;52.916;12.834;2022-11-12T16:35:23;31.42;;;16.63;;
29824;SDS011;16713;52.916;12.834;2022-11-12T16:37:51;29.98;;;16.45;;
29824;SDS011;16713;52.916;12.834;2022-11-12T16:40:21;31.38;;;17.58;;
29824;SDS011;16713;52.916;12.834;2022-11-12T16:42:52;35.20;;;18.17;;
29824;SDS011;16713;52.916;12.834;2022-11-12T16:45:20;32.72;;;18.90;;
29824;SDS011;16713;52.916;12.834;2022-11-12T16:47:52;37.72;;;19.02;;
29824;SDS011;16713;52.916;12.834;2022-11-12T16:50:21;35.25;;;20.10;;
29824;SDS011;16713;52.916;12.834;2022-11-12T16:52:50;35.38;;;19.05;;
29824;SDS011;16713;52.916;12.834;2022-11-12T16:55:18;40.28;;;18.88;;
29824;SDS011;16713;52.916;12.834;2022-11-12T16:57:45;31.10;;;16.15;;
29824;SDS011;16713;52.916;12.834;2022-11-12T17:00:12;28.58;;;14.10;;
29824;SDS011;16713;52.916;12.834;2022-11-12T17:02:41;24.73;;;14.13;;
29824;SDS011;16713;52.916;12.834;2022-11-12T17:05:18;28.80;;;15.40;;
29824;SDS011;16713;52.916;12.834;2022-11-12T17:07:46;28.23;;;14.85;;
29824;SDS011;16713;52.916;12.834;2022-11-12T17:10:13;27.27;;;15.90;;
29824;SDS011;16713;52.916;12.834;2022-11-12T17:12:41;29.33;;;16.35;;